Racecast

WMC Rivers Jamboree #1

University Park Golf Course · 5000m · Boys · Varsity · 2022-09-13 · MI

Course difficulty: +0.010

Race-day weather: 67°F · wind 17 mph · humidity 87% · rain before the race

View full meet →

Team scores

Place Team Points 12345 67
1 Hart (MI) 17 1 2 3 4 7 9 10
2 North Muskegon (MI) 69 5 6 15 17 26 27 30
3 Ravenna (MI) 92 8 14 19 23 28 33 34
4 Shelby (MI) 93 12 13 21 22 25
5 Mason County Central (MI) 106 11 16 18 29 32 35 36
6 Hesperia (MI) 150 20 24 31 37 38 39 40

As scored by the meet.

Results

Place Athlete Grade School Time Rating Points
1 Clayton Ackley 12 Hart (CA) 1 16:28.5 129.1 1
2 Seth Ackley 12 Hart (CA) 2 16:45.2 127.0 2
3 Wyatt Dean 12 Hart (CA) 3 17:01 125.0 3
4 Max Stitt 10 Hart (CA) 4 17:37.7 120.7 4
5 Jude Meldrum-Roy 12 North Muskegon (MI) 1 17:50 SR 119.3 5
6 Evan Atkinson-Miller 11 North Muskegon (MI) 2 17:50 PR 119.3 6
7 Caleb Bitely 12 Hart (CA) 5 18:03.2 117.8 7
8 Matthew Anton 11 Ravenna (MI) 1 18:15 116.6 8
9 Easton Vander Zwaag 12 Hart (CA) 6 18:17.9 PR 116.3 9
10 Jack Slotman 9 Hart (CA) 7 18:18.8 PR 116.2 10
11 Josef Bromley 12 Hart (CA) 8 18:25.9 115.4
12 Hunter Sanford 10 Mason County Central (MI) 1 18:26.4 SR 115.4 11
13 Tanner Soelberg 11 Shelby (MI) 1 18:27 SR 115.3 12
14 Iziquiel Picon 9 Shelby (MI) 2 18:56.4 PR 112.3 13
15 Tyler VanderZanden 11 Hart (CA) 9 19:09.7 SR 111.0
16 Dylan VanKoevering 12 Ravenna (MI) 2 19:31.3 PR 109.0 14
17 Parker Maciejewski 12 North Muskegon (MI) 3 19:31.6 109.0 15
18 Gavin Shirey 12 Mason County Central (MI) 2 19:32.9 108.8 16
19 CJ Bennett 10 North Muskegon (MI) 4 19:33.5 108.8 17
20 Cullen Kraus-McCarty 12 Mason County Central (MI) 3 19:34.4 108.7 18
21 Ethan Schaner 10 Hart (CA) 10 19:40 PR 108.2
22 Kai Miller 10 Hart (CA) 11 19:48.9 SR 107.4
23 Avery Guikema 10 Hart (CA) 12 19:56.7 SR 106.7
24 Tyler Pelham 10 Ravenna (MI) 3 20:05.4 105.9 19
25 Andrew Sherburn 10 Hesperia (MI) 1 20:13.6 PR 105.2 20
26 Bryce VanderKodde 9 Hart (CA) 13 20:37.1 103.2
27 Micah Frye 11 Shelby (MI) 3 20:52.2 SR 102.0 21
28 Jonathon Carballido 11 Shelby (MI) 4 20:56.8 101.6 22
29 Aron Sjoelund 11 Ravenna (MI) 4 21:07.8 PR 100.7 23
30 Caleb Westerbeek 11 Hart (CA) 14 21:22.8 PR 99.5
31 Laynce Smith 9 Hesperia (MI) 2 21:24.7 PR 99.4 24
32 Ethan Fessenden 10 Shelby (MI) 5 21:30.4 SR 98.9 25
33 Braydyn Santos 11 North Muskegon (MI) 5 21:49.4 97.5 26
34 Braden Dalm 11 North Muskegon (MI) 6 21:53.8 97.2 27
35 Elijah Rollf 10 Holton (KS) 1 22:08.8 SR 96.1
36 Isaiah Kooiman 12 Ravenna (MI) 5 22:26.2 SR 94.8 28
37 Trey Johnson 11 Mason County Central (MI) 4 22:34.4 PR 94.2 29
38 Jacob Vander Velde 11 North Muskegon (MI) 7 22:41.2 93.8 30
39 Zack Temple 9 Hesperia (MI) 3 22:44.5 PR 93.6 31
40 Asher Johnson 11 Mason County Central (MI) 5 22:44.9 SR 93.5 32
41 Tim Smith 10 Ravenna (MI) 6 23:08.9 PR 91.9 33
42 Benjamin Carpenter 9 North Muskegon (MI) 8 23:20.2 91.2
43 Caleb Jonas 11 Ravenna (MI) 7 23:44.5 SR 89.6 34
44 Christian Dohm 12 Ravenna (MI) 8 24:01.7 SR 88.5
45 Andan Skuse 9 Ravenna (MI) 9 24:05.5 PR 88.3
46 Sam Johnson 12 Mason County Central (MI) 6 25:43.6 82.7 35
47 Brayden Figgins-Newton 10 Mason County Central (MI) 7 25:50.9 SR 82.3 36
48 Ethen Gancarz 9 Mason County Central (MI) 8 27:38.4 PR 77.0
49 Jacob Priese 9 Hesperia (MI) 4 27:40.1 76.9 37
50 Jack Casey 12 North Muskegon (MI) 9 28:21.1 75.0
51 Dain Kraus 9 Hesperia (MI) 5 28:49 PR 73.8 38
52 Jackson Wiles 12 North Muskegon (MI) 10 29:14.5 72.8
53 Matice Nichols 9 Hesperia (MI) 6 30:05 PR 70.7 39
54 Kolt Milner 9 Hesperia (MI) 7 30:07.3 70.6 40
55 Jacob Failor 10 Mason County Central (MI) 9 30:29.3 69.8
Something wrong on this page? Report it →